createdAt,value
2023-02-17T00:00:32.253Z,35.30
2023-02-17T00:03:02.940Z,33.35
2023-02-17T00:05:33.964Z,32.90
2023-02-17T00:08:04.766Z,36.92
2023-02-17T00:10:35.588Z,37.53
2023-02-17T00:13:06.369Z,32.33
2023-02-17T00:15:36.604Z,32.70
2023-02-17T00:18:07.226Z,39.33
2023-02-17T00:20:37.765Z,40.95
2023-02-17T00:23:08.251Z,37.95
2023-02-17T00:25:39.951Z,36.00
2023-02-17T00:28:10.199Z,33.05
2023-02-17T00:30:40.939Z,35.85
2023-02-17T00:33:12.136Z,40.47
2023-02-17T00:35:43.189Z,52.38
2023-02-17T00:38:13.700Z,46.00
2023-02-17T00:40:45.231Z,40.13
2023-02-17T00:43:15.972Z,37.50
2023-02-17T00:45:46.309Z,33.65
2023-02-17T00:48:16.572Z,38.30
2023-02-17T00:50:48.812Z,38.03
2023-02-17T00:53:19.341Z,32.92
2023-02-17T00:55:50.105Z,36.40
2023-02-17T00:58:21.456Z,40.00
2023-02-17T01:00:51.934Z,31.70
2023-02-17T01:03:22.192Z,36.67
2023-02-17T01:05:55.984Z,33.40
2023-02-17T01:08:27.077Z,32.75
2023-02-17T01:10:57.526Z,33.88
2023-02-17T01:13:28.170Z,35.80
2023-02-17T01:15:59.101Z,33.97
2023-02-17T01:18:30.149Z,44.10
2023-02-17T01:21:00.970Z,33.90
2023-02-17T01:23:32.244Z,35.92
2023-02-17T01:26:02.945Z,33.20
2023-02-17T01:28:33.974Z,32.47
2023-02-17T01:31:08.767Z,29.88
2023-02-17T01:33:39.700Z,35.25
2023-02-17T01:36:13.536Z,29.75
2023-02-17T01:38:43.720Z,31.42
2023-02-17T01:41:16.076Z,32.47
2023-02-17T01:44:06.234Z,36.53
2023-02-17T01:46:36.995Z,35.45
2023-02-17T01:49:15.027Z,39.30
2023-02-17T01:51:45.417Z,32.33
2023-02-17T01:54:18.586Z,31.88
2023-02-17T01:56:51.461Z,36.78
2023-02-17T01:59:24.357Z,32.22
2023-02-17T02:01:57.500Z,39.90
2023-02-17T02:04:29.063Z,29.90
2023-02-17T02:06:59.669Z,29.92
2023-02-17T02:09:41.332Z,33.00
2023-02-17T02:12:31.021Z,28.90
2023-02-17T02:15:04.506Z,29.85
2023-02-17T02:17:39.800Z,32.20
2023-02-17T02:20:29.826Z,29.50
2023-02-17T02:23:19.773Z,29.85
2023-02-17T02:26:09.486Z,32.60
2023-02-17T02:28:59.526Z,31.58
2023-02-17T02:31:49.647Z,31.40
2023-02-17T02:34:30.532Z,32.83
2023-02-17T02:37:09.310Z,33.95
2023-02-17T02:39:45.022Z,36.22
2023-02-17T02:42:17.290Z,35.42
2023-02-17T02:44:48.311Z,36.85
2023-02-17T02:47:39.379Z,43.72
2023-02-17T02:50:10.955Z,35.15
2023-02-17T02:53:01.198Z,37.95
2023-02-17T02:55:51.543Z,41.70
2023-02-17T02:58:32.684Z,38.00
2023-02-17T03:01:08.658Z,37.22
2023-02-17T03:03:45.396Z,36.08
2023-02-17T03:06:37.446Z,39.63
2023-02-17T03:09:10.394Z,46.55
2023-02-17T03:11:41.192Z,36.20
2023-02-17T03:14:13.029Z,37.40
2023-02-17T03:16:45.300Z,36.95
2023-02-17T03:19:16.669Z,37.35
2023-02-17T03:21:51.562Z,39.85
2023-02-17T03:24:22.259Z,37.97
2023-02-17T03:26:53.510Z,33.83
2023-02-17T03:29:24.070Z,33.40
2023-02-17T03:31:54.766Z,35.83
2023-02-17T03:34:25.336Z,33.90
2023-02-17T03:36:56.245Z,34.42
2023-02-17T03:39:26.463Z,30.75
2023-02-17T03:41:57.496Z,29.42
2023-02-17T03:44:28.198Z,33.03
2023-02-17T03:46:58.692Z,30.80
2023-02-17T03:49:29.474Z,32.72
2023-02-17T03:52:00.967Z,33.90
2023-02-17T03:54:31.464Z,32.10
2023-02-17T03:57:02.680Z,29.83
2023-02-17T03:59:32.976Z,29.60
2023-02-17T04:02:03.141Z,28.17
2023-02-17T04:04:33.410Z,28.38
2023-02-17T04:07:03.892Z,33.25
2023-02-17T04:09:34.452Z,28.75
2023-02-17T04:12:04.926Z,28.85
2023-02-17T04:14:36.382Z,27.10
2023-02-17T04:17:07.025Z,47.65
2023-02-17T04:19:40.489Z,35.97
2023-02-17T04:22:11.449Z,32.88
2023-02-17T04:24:42.348Z,29.35
2023-02-17T04:27:13.187Z,31.70
2023-02-17T04:29:44.367Z,31.15
2023-02-17T04:32:14.466Z,27.38
2023-02-17T04:34:44.393Z,29.85
2023-02-17T04:37:15.026Z,29.40
2023-02-17T04:39:45.641Z,29.00
2023-02-17T04:42:16.014Z,34.35
2023-02-17T04:44:46.247Z,30.48
2023-02-17T04:47:16.302Z,31.15
2023-02-17T04:49:46.443Z,34.90
2023-02-17T04:52:16.682Z,27.50
2023-02-17T04:54:46.949Z,29.48
2023-02-17T04:57:17.570Z,30.25
2023-02-17T04:59:47.699Z,29.40
2023-02-17T05:02:17.892Z,27.92
2023-02-17T05:04:48.181Z,34.22
2023-02-17T05:07:18.642Z,26.55
2023-02-17T05:09:49.046Z,31.10
2023-02-17T05:12:19.486Z,26.33
2023-02-17T05:14:50.286Z,29.23
2023-02-17T05:17:20.501Z,30.77
2023-02-17T05:19:50.884Z,26.40
2023-02-17T05:22:21.603Z,36.25
2023-02-17T05:24:52.130Z,26.88
2023-02-17T05:27:23.092Z,29.70
2023-02-17T05:29:53.810Z,26.48
2023-02-17T05:32:25.977Z,29.17
2023-02-17T05:34:57.175Z,28.65
2023-02-17T05:37:29.495Z,26.00
2023-02-17T05:40:00.800Z,30.92
2023-02-17T05:42:31.160Z,32.47
2023-02-17T05:45:01.652Z,28.65
2023-02-17T05:47:33.191Z,30.08
2023-02-17T05:50:04.990Z,28.90
2023-02-17T05:52:36.855Z,32.67
2023-02-17T05:55:07.919Z,28.98
2023-02-17T05:57:39.223Z,27.25
2023-02-17T06:00:09.804Z,26.92
2023-02-17T06:02:43.254Z,27.23
2023-02-17T06:05:13.813Z,28.67
2023-02-17T06:07:45.169Z,25.95
2023-02-17T06:10:16.279Z,39.17
2023-02-17T06:12:48.064Z,26.08
2023-02-17T06:15:18.887Z,27.52
2023-02-17T06:17:49.917Z,24.70
2023-02-17T06:20:20.776Z,25.05
2023-02-17T06:22:51.017Z,24.85
2023-02-17T06:25:22.118Z,28.13
2023-02-17T06:27:52.579Z,27.08
2023-02-17T06:30:23.547Z,27.85
2023-02-17T06:32:53.864Z,27.60
2023-02-17T06:35:24.306Z,25.17
2023-02-17T06:37:54.805Z,25.92
2023-02-17T06:40:26.558Z,24.67
2023-02-17T06:42:58.516Z,25.77
2023-02-17T06:45:29.164Z,24.20
2023-02-17T06:47:59.638Z,26.23
2023-02-17T06:50:29.948Z,28.25
2023-02-17T06:53:00.089Z,28.70
2023-02-17T06:55:30.607Z,26.05
2023-02-17T06:58:01.027Z,25.48
2023-02-17T07:00:31.396Z,30.10
2023-02-17T07:03:01.667Z,30.63
2023-02-17T07:05:32.181Z,25.98
2023-02-17T07:08:02.329Z,26.80
2023-02-17T07:10:32.754Z,27.10
2023-02-17T07:13:02.956Z,25.25
2023-02-17T07:15:33.206Z,25.48
2023-02-17T07:18:04.804Z,23.27
2023-02-17T07:20:36.432Z,25.08
2023-02-17T07:23:08.420Z,44.33
2023-02-17T07:25:39.082Z,23.75
2023-02-17T07:28:09.340Z,26.00
2023-02-17T07:30:40.963Z,26.42
2023-02-17T07:33:11.669Z,24.27
2023-02-17T07:35:48.325Z,24.85
2023-02-17T07:38:18.431Z,25.73
2023-02-17T07:40:48.929Z,26.63
2023-02-17T07:43:19.120Z,26.55
2023-02-17T07:45:49.751Z,25.02
2023-02-17T07:48:20.336Z,27.33
2023-02-17T07:50:50.990Z,26.33
2023-02-17T07:53:21.363Z,26.10
2023-02-17T07:55:51.581Z,25.67
2023-02-17T07:58:22.117Z,25.75
2023-02-17T08:00:52.583Z,30.40
2023-02-17T08:03:23.268Z,41.10
2023-02-17T08:05:54.613Z,27.02
2023-02-17T08:08:45.118Z,28.30
2023-02-17T08:11:36.272Z,28.95
2023-02-17T08:14:06.837Z,26.92
2023-02-17T08:16:37.527Z,28.95
2023-02-17T08:19:08.513Z,28.30
2023-02-17T08:21:39.143Z,27.65
2023-02-17T08:24:09.901Z,27.27
2023-02-17T08:26:40.543Z,25.08
2023-02-17T08:29:11.077Z,28.10
2023-02-17T08:31:41.627Z,28.58
2023-02-17T08:34:13.361Z,24.77
2023-02-17T08:36:43.703Z,22.92
2023-02-17T08:39:15.765Z,36.38
2023-02-17T08:41:46.847Z,26.15
2023-02-17T08:44:22.409Z,22.80
2023-02-17T08:46:54.030Z,24.50
2023-02-17T08:49:26.474Z,23.25
2023-02-17T08:51:57.083Z,24.08
2023-02-17T08:54:27.536Z,33.45
2023-02-17T08:56:58.234Z,25.63
2023-02-17T08:59:28.746Z,25.92
2023-02-17T09:02:00.130Z,23.40
2023-02-17T09:04:30.309Z,24.85
2023-02-17T09:07:00.937Z,27.42
2023-02-17T09:09:31.676Z,31.50
2023-02-17T09:12:01.909Z,26.73
2023-02-17T09:14:32.193Z,24.33
2023-02-17T09:17:02.478Z,27.42
2023-02-17T09:19:32.930Z,26.00
2023-02-17T09:22:03.599Z,25.92
2023-02-17T09:24:36.532Z,26.40
2023-02-17T09:27:07.037Z,26.77
2023-02-17T09:29:39.599Z,24.35
2023-02-17T09:32:10.540Z,30.42
2023-02-17T09:34:43.560Z,24.85
2023-02-17T09:37:14.688Z,23.02
2023-02-17T09:39:45.406Z,20.63
2023-02-17T09:42:25.252Z,25.17
2023-02-17T09:45:01.757Z,24.48
2023-02-17T09:47:35.461Z,23.80
2023-02-17T09:50:09.922Z,23.63
2023-02-17T09:52:50.764Z,24.48
2023-02-17T09:55:33.015Z,25.75
2023-02-17T09:58:09.699Z,27.95
2023-02-17T10:00:47.479Z,25.77
2023-02-17T10:03:37.772Z,25.73
2023-02-17T10:06:14.874Z,27.08
2023-02-17T10:08:59.788Z,26.77
2023-02-17T10:11:34.664Z,25.20
2023-02-17T10:14:15.360Z,23.42
2023-02-17T10:16:52.045Z,23.55
2023-02-17T10:19:29.240Z,26.65
2023-02-17T10:22:06.808Z,24.15
2023-02-17T10:24:37.830Z,28.63
2023-02-17T10:27:28.535Z,33.35
2023-02-17T10:30:18.333Z,27.05
2023-02-17T10:32:58.001Z,26.13
2023-02-17T10:35:42.975Z,31.52
2023-02-17T10:38:21.489Z,27.30
2023-02-17T10:40:53.204Z,27.65
2023-02-17T10:43:31.435Z,25.48
2023-02-17T10:46:03.422Z,26.45
2023-02-17T10:48:40.291Z,23.25
2023-02-17T10:51:10.443Z,26.95
2023-02-17T10:53:41.806Z,30.50
2023-02-17T10:56:24.370Z,33.67
2023-02-17T10:59:14.392Z,32.90
2023-02-17T11:01:45.051Z,41.85
2023-02-17T11:04:15.685Z,50.53
2023-02-17T11:06:53.668Z,46.45
2023-02-17T11:09:34.910Z,31.92
2023-02-17T11:12:06.869Z,31.60
2023-02-17T11:14:39.763Z,33.03
2023-02-17T11:17:18.046Z,48.38
2023-02-17T11:20:00.801Z,43.60
2023-02-17T11:22:50.426Z,41.85
2023-02-17T11:25:28.266Z,63.45
2023-02-17T11:27:59.905Z,85.50
2023-02-17T11:30:31.656Z,52.05
2023-02-17T11:33:02.779Z,55.70
2023-02-17T11:35:53.334Z,72.38
2023-02-17T11:38:27.308Z,67.40
2023-02-17T11:40:59.548Z,55.80
2023-02-17T11:43:34.596Z,51.55
2023-02-17T11:46:19.652Z,42.47
2023-02-17T11:49:09.576Z,56.28
2023-02-17T11:51:59.542Z,47.15
2023-02-17T11:54:50.482Z,51.17
2023-02-17T11:57:37.559Z,42.90
2023-02-17T12:00:27.607Z,50.13
2023-02-17T12:03:17.569Z,52.90
2023-02-17T12:06:07.692Z,66.55
2023-02-17T12:08:57.917Z,56.03
2023-02-17T12:11:44.833Z,63.55
2023-02-17T12:14:34.800Z,103.15
2023-02-17T12:17:24.538Z,176.10
2023-02-17T12:20:01.957Z,131.00
2023-02-17T12:22:51.831Z,130.90
2023-02-17T12:25:30.543Z,126.13
2023-02-17T12:28:20.383Z,117.05
2023-02-17T12:30:57.177Z,121.90
2023-02-17T12:33:46.993Z,119.53
2023-02-17T12:36:19.946Z,122.63
2023-02-17T12:38:57.041Z,103.93
2023-02-17T12:41:37.086Z,109.35
2023-02-17T12:44:19.942Z,83.18
2023-02-17T12:46:54.380Z,93.25
2023-02-17T12:49:44.190Z,101.22
2023-02-17T12:52:34.284Z,94.70
2023-02-17T12:55:24.306Z,88.38
2023-02-17T12:58:07.179Z,91.82
2023-02-17T13:00:46.956Z,94.63
2023-02-17T13:03:17.593Z,88.28
2023-02-17T13:05:56.673Z,89.00
2023-02-17T13:08:33.675Z,74.15
2023-02-17T13:11:05.678Z,77.53
2023-02-17T13:13:36.693Z,70.30
2023-02-17T13:16:14.928Z,78.85
2023-02-17T13:18:46.733Z,77.00
2023-02-17T13:21:34.559Z,86.43
2023-02-17T13:24:09.057Z,67.43
2023-02-17T13:26:40.480Z,68.57
2023-02-17T13:29:30.811Z,76.30
2023-02-17T13:32:03.994Z,88.50
2023-02-17T13:34:36.709Z,91.70
2023-02-17T13:37:29.827Z,82.43
2023-02-17T13:40:00.534Z,94.22
2023-02-17T13:42:51.900Z,85.20
2023-02-17T13:45:36.833Z,82.55
2023-02-17T13:48:18.067Z,87.57
2023-02-17T13:50:56.761Z,91.03
2023-02-17T13:53:44.908Z,79.60
2023-02-17T13:56:26.555Z,80.65
2023-02-17T13:58:57.158Z,87.22
2023-02-17T14:01:30.531Z,81.55
2023-02-17T14:04:01.901Z,83.40
2023-02-17T14:06:35.592Z,73.93
2023-02-17T14:09:26.072Z,84.03
2023-02-17T14:11:57.657Z,79.47
2023-02-17T14:14:31.296Z,87.50
2023-02-17T14:17:10.656Z,160.98
2023-02-17T14:19:45.247Z,165.70
2023-02-17T14:22:35.282Z,91.55
2023-02-17T14:25:10.057Z,74.90
2023-02-17T14:27:47.477Z,77.22
2023-02-17T14:30:40.387Z,78.25
2023-02-17T14:33:29.380Z,83.85
2023-02-17T14:36:00.931Z,75.22
2023-02-17T14:38:38.784Z,77.43
2023-02-17T14:41:11.497Z,78.30
2023-02-17T14:43:42.077Z,76.00
2023-02-17T14:46:12.252Z,75.80
2023-02-17T14:48:42.619Z,74.47
2023-02-17T14:51:16.931Z,74.75
2023-02-17T14:53:47.557Z,69.88
2023-02-17T14:56:22.331Z,72.75
2023-02-17T14:58:54.730Z,71.75
2023-02-17T15:01:26.453Z,67.38
2023-02-17T15:03:57.061Z,63.13
2023-02-17T15:06:34.983Z,69.22
2023-02-17T15:09:05.221Z,65.63
2023-02-17T15:11:39.216Z,76.82
2023-02-17T15:14:09.715Z,77.40
2023-02-17T15:16:40.281Z,82.63
2023-02-17T15:19:11.809Z,81.50
2023-02-17T15:21:43.457Z,81.13
2023-02-17T15:24:26.481Z,87.60
2023-02-17T15:26:59.198Z,84.68
2023-02-17T15:29:30.696Z,86.30
2023-02-17T15:32:03.895Z,76.30
2023-02-17T15:34:35.635Z,66.80
2023-02-17T15:37:06.285Z,78.38
2023-02-17T15:39:36.826Z,66.47
2023-02-17T15:42:15.112Z,77.43
2023-02-17T15:44:49.555Z,84.43
2023-02-17T15:47:21.119Z,88.32
2023-02-17T15:49:51.951Z,75.82
2023-02-17T15:52:22.681Z,79.00
2023-02-17T15:54:53.162Z,87.25
2023-02-17T15:57:25.287Z,83.75
2023-02-17T15:59:59.161Z,82.60
2023-02-17T16:02:29.373Z,80.20
2023-02-17T16:05:00.234Z,84.45
2023-02-17T16:07:30.697Z,81.32
2023-02-17T16:10:01.310Z,84.45
2023-02-17T16:12:31.835Z,89.50
2023-02-17T16:15:02.089Z,87.15
2023-02-17T16:17:32.860Z,88.03
2023-02-17T16:20:03.652Z,84.55
2023-02-17T16:22:35.052Z,103.97
2023-02-17T16:25:06.354Z,89.20
2023-02-17T16:27:36.994Z,89.30
2023-02-17T16:30:27.082Z,83.65
2023-02-17T16:32:57.695Z,75.97
2023-02-17T16:35:29.350Z,84.25
2023-02-17T16:38:02.838Z,76.70
2023-02-17T16:40:34.562Z,70.13
2023-02-17T16:43:06.505Z,81.97
2023-02-17T16:45:36.943Z,74.22
2023-02-17T16:48:10.788Z,70.63
2023-02-17T16:50:41.534Z,72.22
2023-02-17T16:53:15.661Z,64.18
2023-02-17T16:55:50.723Z,67.28
2023-02-17T16:58:22.797Z,58.42
2023-02-17T17:00:54.842Z,65.10
2023-02-17T17:03:24.945Z,64.78
2023-02-17T17:05:55.317Z,65.63
2023-02-17T17:08:25.791Z,63.40
2023-02-17T17:10:56.578Z,71.68
2023-02-17T17:13:27.152Z,66.45
2023-02-17T17:15:58.699Z,78.53
2023-02-17T17:18:29.147Z,70.47
2023-02-17T17:21:00.084Z,65.82
2023-02-17T17:23:30.774Z,67.38
2023-02-17T17:26:01.032Z,64.00
2023-02-17T17:28:31.545Z,62.30
2023-02-17T17:31:02.669Z,69.95
2023-02-17T17:33:33.153Z,65.53
2023-02-17T17:36:03.677Z,65.78
2023-02-17T17:38:33.837Z,60.08
2023-02-17T17:41:04.323Z,55.80
2023-02-17T17:43:35.161Z,65.25
2023-02-17T17:46:05.833Z,59.15
2023-02-17T17:48:36.246Z,66.07
2023-02-17T17:51:06.357Z,53.85
2023-02-17T17:53:36.698Z,60.75
2023-02-17T17:56:08.774Z,59.58
2023-02-17T17:58:40.639Z,60.63
2023-02-17T18:01:10.897Z,59.03
2023-02-17T18:03:41.902Z,60.17
2023-02-17T18:06:15.951Z,60.08
2023-02-17T18:08:46.971Z,61.33
2023-02-17T18:11:18.758Z,57.15
2023-02-17T18:13:50.842Z,58.55
2023-02-17T18:16:22.726Z,57.58
2023-02-17T18:18:53.449Z,68.88
2023-02-17T18:21:23.940Z,58.88
2023-02-17T18:23:54.430Z,66.47
2023-02-17T18:26:24.747Z,66.72
2023-02-17T18:28:55.516Z,63.30
2023-02-17T18:31:29.514Z,62.90
2023-02-17T18:34:00.037Z,64.97
2023-02-17T18:36:30.447Z,61.55
2023-02-17T18:39:00.569Z,65.70
2023-02-17T18:41:32.419Z,65.68
2023-02-17T18:44:04.021Z,66.03
2023-02-17T18:46:34.755Z,60.75
2023-02-17T18:49:05.157Z,57.58
2023-02-17T18:51:35.433Z,62.70
2023-02-17T18:54:06.714Z,60.92
2023-02-17T18:56:37.365Z,63.90
2023-02-17T18:59:07.585Z,62.10
2023-02-17T19:01:42.319Z,61.83
2023-02-17T19:04:14.428Z,62.85
2023-02-17T19:06:44.996Z,65.45
2023-02-17T19:09:15.444Z,63.80
2023-02-17T19:11:45.528Z,62.83
2023-02-17T19:14:15.649Z,65.55
2023-02-17T19:16:46.245Z,65.55
2023-02-17T19:19:16.299Z,61.33
2023-02-17T19:21:47.320Z,62.63
2023-02-17T19:24:18.515Z,60.13
2023-02-17T19:26:49.354Z,62.88
2023-02-17T19:29:20.484Z,62.15
2023-02-17T19:31:51.700Z,66.45
2023-02-17T19:34:21.853Z,64.45
2023-02-17T19:36:52.162Z,59.88
2023-02-17T19:39:22.737Z,67.50
2023-02-17T19:41:52.853Z,64.25
2023-02-17T19:44:23.052Z,59.55
2023-02-17T19:46:53.512Z,61.67
2023-02-17T19:49:23.594Z,59.38
2023-02-17T19:51:55.460Z,61.28
2023-02-17T19:54:26.009Z,65.88
2023-02-17T19:56:56.467Z,57.90
2023-02-17T19:59:28.844Z,59.83
2023-02-17T20:01:59.705Z,57.58
2023-02-17T20:04:30.106Z,60.45
2023-02-17T20:07:00.480Z,59.75
2023-02-17T20:09:30.933Z,56.55
2023-02-17T20:12:01.233Z,55.30
2023-02-17T20:14:31.597Z,55.60
2023-02-17T20:17:02.545Z,55.20
2023-02-17T20:19:33.356Z,55.15
2023-02-17T20:22:03.579Z,51.78
2023-02-17T20:24:34.499Z,55.78
2023-02-17T20:27:05.354Z,50.53
2023-02-17T20:29:37.806Z,51.13
2023-02-17T20:32:08.536Z,57.17
2023-02-17T20:34:43.534Z,51.30
2023-02-17T20:37:14.063Z,53.17
2023-02-17T20:39:44.984Z,55.28
2023-02-17T20:42:15.150Z,54.42
2023-02-17T20:44:46.187Z,54.33
2023-02-17T20:47:17.018Z,55.20
2023-02-17T20:49:47.705Z,56.30
2023-02-17T20:52:17.959Z,55.33
2023-02-17T20:54:48.734Z,55.92
2023-02-17T20:57:19.212Z,50.53
2023-02-17T20:59:49.533Z,56.20
2023-02-17T21:02:19.829Z,57.42
2023-02-17T21:04:50.386Z,51.22
2023-02-17T21:07:20.778Z,59.20
2023-02-17T21:09:51.740Z,53.20
2023-02-17T21:12:22.926Z,60.28
2023-02-17T21:14:53.063Z,52.42
2023-02-17T21:17:23.746Z,52.10
2023-02-17T21:19:54.557Z,52.78
2023-02-17T21:22:25.376Z,55.05
2023-02-17T21:24:55.556Z,51.88
2023-02-17T21:27:26.785Z,53.45
2023-02-17T21:29:57.347Z,52.90
2023-02-17T21:32:27.778Z,51.22
2023-02-17T21:34:58.153Z,54.47
2023-02-17T21:37:28.328Z,52.15
2023-02-17T21:39:58.845Z,53.33
2023-02-17T21:42:51.215Z,50.40
2023-02-17T21:45:21.381Z,49.40
2023-02-17T21:47:51.800Z,57.15
2023-02-17T21:50:22.951Z,47.88
2023-02-17T21:52:53.156Z,52.78
2023-02-17T21:55:23.806Z,47.78
2023-02-17T21:57:53.923Z,49.53
2023-02-17T22:00:24.458Z,53.78
2023-02-17T22:02:54.835Z,55.33
2023-02-17T22:05:25.208Z,57.53
2023-02-17T22:07:55.304Z,51.10
2023-02-17T22:10:25.526Z,52.75
2023-02-17T22:12:55.638Z,50.10
2023-02-17T22:15:26.460Z,53.30
2023-02-17T22:17:56.918Z,52.13
2023-02-17T22:20:27.388Z,52.70
2023-02-17T22:22:58.155Z,51.15
2023-02-17T22:25:28.398Z,51.90
2023-02-17T22:27:58.591Z,50.03
2023-02-17T22:30:29.265Z,48.67
2023-02-17T22:33:00.095Z,48.97
2023-02-17T22:35:30.324Z,46.30
2023-02-17T22:38:01.351Z,52.75
2023-02-17T22:40:31.891Z,52.65
2023-02-17T22:43:02.682Z,46.90
2023-02-17T22:45:33.532Z,51.53
2023-02-17T22:48:04.129Z,52.45
2023-02-17T22:50:34.779Z,50.33
2023-02-17T22:53:05.424Z,53.30
2023-02-17T22:55:35.996Z,50.85
2023-02-17T22:58:06.456Z,44.92
2023-02-17T23:00:37.077Z,48.40
2023-02-17T23:03:07.540Z,50.97
2023-02-17T23:05:38.014Z,48.85
2023-02-17T23:08:08.655Z,48.60
2023-02-17T23:10:42.969Z,52.03
2023-02-17T23:13:13.187Z,51.58
2023-02-17T23:15:44.279Z,50.90
2023-02-17T23:18:16.211Z,51.83
2023-02-17T23:20:47.973Z,52.33
2023-02-17T23:23:18.874Z,53.63
2023-02-17T23:25:52.947Z,48.80
2023-02-17T23:28:24.635Z,47.65
2023-02-17T23:30:55.653Z,53.05
2023-02-17T23:33:26.450Z,57.72
2023-02-17T23:35:56.842Z,60.80
2023-02-17T23:38:27.423Z,56.80
2023-02-17T23:40:57.887Z,51.92
2023-02-17T23:43:28.016Z,61.45
2023-02-17T23:45:58.748Z,57.30
2023-02-17T23:48:29.595Z,59.40
2023-02-17T23:51:03.780Z,57.40
2023-02-17T23:53:34.625Z,55.20
2023-02-17T23:56:07.761Z,56.33
2023-02-17T23:58:38.446Z,58.58
